Greensburg, Kansas
Current Conditions -  °F | °C
As of 3:35 PM on Wednesday 26 Nov 2014 (Local Time) from KPTT Reporting Station
Overcast Overcast  
Wind Chill: 34°   Ceiling: 9000
Heat Index: 43°   Visibility: 10mi
Dew Point: 19°   Wind: 20mph
Humidity: 39%   Direction: 340°NNW
Pressure: 30.28"   Gusts: 26mph
Location:  37.6°N, 99.29°W
Report Text: KPTT 262135Z AUTO 34017G23KT 10SM OVC090 06/M07 A3028 RMK AO2
Loading
Personal Weather Stations






























Interactive Weather Map New forecast layout! Learn more

10-Day Weather Forecast

Advertisements
Track Severe Weather on mobile